Time;durP1;ratioP1;P1;durP2;ratioP2;P2;SDS_P1;SDS_P2;PMS_P1;PMS_P2;Temp;Humidity;BMP_temperature;BMP_pressure;BME280_temperature;BME280_humidity;BME280_pressure;Samples;Min_cycle;Max_cycle;Signal;HPM_P1;HPM_P2
2023/06/27 00:01:39;;;;;;;0.10;0.10;;;18.40;99.90;;;;;;5020517;28;20174;-82
2023/06/27 00:04:06;;;;;;;0.10;0.10;;;18.40;99.90;;;;;;5019391;28;20182;-82
2023/06/27 00:06:31;;;;;;;0.10;0.10;;;18.40;99.90;;;;;;5021128;28;20215;-83
2023/06/27 00:08:58;;;;;;;0.10;0.10;;;18.40;99.90;;;;;;5021973;28;20213;-82
2023/06/27 00:11:23;;;;;;;0.10;0.10;;;18.40;99.90;;;;;;5020178;28;21080;-82
2023/06/27 00:13:49;;;;;;;0.10;0.10;;;18.30;99.90;;;;;;5018871;28;20197;-82
2023/06/27 00:16:17;;;;;;;0.10;0.10;;;18.50;99.90;;;;;;5021639;28;20784;-82
2023/06/27 00:18:47;;;;;;;0.10;0.10;;;18.50;99.90;;;;;;5021252;28;20189;-82
2023/06/27 00:21:15;;;;;;;0.10;0.10;;;18.30;99.90;;;;;;5022138;28;20228;-82
2023/06/27 00:23:42;;;;;;;0.10;0.10;;;18.20;99.90;;;;;;5019804;28;20210;-82
2023/06/27 00:26:09;;;;;;;0.10;0.10;;;18.20;99.90;;;;;;5019791;28;20323;-82
2023/06/27 00:28:35;;;;;;;0.10;0.10;;;18.20;99.90;;;;;;5019402;28;20190;-82
2023/06/27 00:31:00;;;;;;;0.10;0.10;;;18.40;99.90;;;;;;5020528;28;20263;-82
2023/06/27 00:33:26;;;;;;;0.10;0.10;;;18.40;99.90;;;;;;5019015;28;20209;-82
2023/06/27 00:35:51;;;;;;;0.10;0.10;;;18.30;99.90;;;;;;5020824;28;20690;-82
2023/06/27 00:38:17;;;;;;;0.10;0.10;;;18.30;99.90;;;;;;5020065;28;20186;-82
2023/06/27 00:40:43;;;;;;;0.10;0.10;;;18.30;99.90;;;;;;5020070;28;20201;-82
2023/06/27 00:43:08;;;;;;;0.10;0.10;;;18.40;99.90;;;;;;5019583;28;20216;-82
2023/06/27 00:45:34;;;;;;;0.10;0.10;;;18.50;99.90;;;;;;5019745;28;20190;-82
2023/06/27 00:48:00;;;;;;;0.10;0.10;;;18.30;99.90;;;;;;5019346;28;20661;-82
2023/06/27 00:50:27;;;;;;;0.10;0.10;;;18.20;99.90;;;;;;5019778;28;20183;-82
2023/06/27 00:52:54;;;;;;;0.10;0.10;;;18.20;99.90;;;;;;5020341;28;20240;-82
2023/06/27 00:55:21;;;;;;;0.10;0.10;;;18.20;99.90;;;;;;5020050;28;20624;-82
2023/06/27 00:57:47;;;;;;;0.10;0.10;;;18.30;99.90;;;;;;5030048;28;20712;-82
2023/06/27 01:00:15;;;;;;;0.10;0.10;;;18.30;99.90;;;;;;5021223;28;20251;-82
2023/06/27 01:02:41;;;;;;;0.10;0.10;;;18.20;99.90;;;;;;5022764;28;20721;-82
2023/06/27 01:05:07;;;;;;;0.10;0.10;;;18.10;99.90;;;;;;5022353;28;20201;-82
2023/06/27 01:07:57;;;;;;;0.10;0.10;;;18.10;99.90;;;;;;5021023;28;20216;-82
2023/06/27 01:10:48;;;;;;;0.10;0.10;;;17.90;99.90;;;;;;5023713;28;20202;-80
2023/06/27 01:13:27;;;;;;;0.10;0.10;;;17.80;99.90;;;;;;5021006;28;20236;-82
2023/06/27 01:15:53;;;;;;;0.10;0.10;;;17.70;99.90;;;;;;5026420;28;20190;-82
2023/06/27 01:18:21;;;;;;;0.10;0.10;;;17.50;99.90;;;;;;5027358;28;20178;-82
2023/06/27 01:20:48;;;;;;;0.10;0.10;;;17.50;99.90;;;;;;5023581;28;20551;-82
2023/06/27 01:23:48;;;;;;;0.10;0.10;;;17.40;99.90;;;;;;5026264;28;20202;-82
2023/06/27 01:26:15;;;;;;;0.10;0.10;;;17.40;99.90;;;;;;5024123;28;20744;-82
2023/06/27 01:28:40;;;;;;;0.10;0.10;;;17.40;99.90;;;;;;5027373;28;20213;-82
2023/06/27 01:31:06;;;;;;;0.10;0.10;;;17.30;99.90;;;;;;5025187;28;20216;-81
2023/06/27 01:33:41;;;;;;;0.10;0.10;;;17.20;99.90;;;;;;5024367;28;20212;-82
2023/06/27 01:36:09;;;;;;;0.10;0.10;;;17.10;99.90;;;;;;5026152;28;20602;-82
2023/06/27 01:38:47;;;;;;;0.10;0.10;;;17.10;99.90;;;;;;5025071;28;20190;-82
2023/06/27 01:41:18;;;;;;;0.10;0.10;;;16.90;99.90;;;;;;5023712;28;20709;-82
2023/06/27 01:43:45;;;;;;;0.10;0.10;;;17.00;99.90;;;;;;5025605;28;20206;-82
2023/06/27 01:46:11;;;;;;;0.10;0.10;;;16.90;99.90;;;;;;5025497;28;20246;-82
2023/06/27 01:48:40;;;;;;;0.10;0.10;;;16.90;99.90;;;;;;5024097;28;20199;-81
2023/06/27 01:51:07;;;;;;;0.10;0.10;;;16.90;99.90;;;;;;5023495;28;20275;-81
2023/06/27 01:53:33;;;;;;;0.10;0.10;;;16.90;99.90;;;;;;5024716;28;20284;-82
2023/06/27 01:55:59;;;;;;;0.10;0.10;;;16.80;99.90;;;;;;5024813;28;20278;-82
2023/06/27 01:58:24;;;;;;;0.10;0.10;;;16.80;99.90;;;;;;5023752;28;20521;-81
2023/06/27 02:00:50;;;;;;;0.10;0.10;;;16.90;99.90;;;;;;5025145;28;20187;-82
2023/06/27 02:03:15;;;;;;;0.10;0.10;;;17.00;99.90;;;;;;5025542;28;20268;-82
2023/06/27 02:05:41;;;;;;;0.10;0.10;;;17.00;99.90;;;;;;5026644;28;20264;-82
2023/06/27 02:08:06;;;;;;;0.10;0.10;;;17.00;99.90;;;;;;5025147;28;20182;-82
2023/06/27 02:10:32;;;;;;;0.10;0.10;;;17.00;99.90;;;;;;5023782;28;20187;-82
2023/06/27 02:13:03;;;;;;;0.10;0.10;;;17.10;99.90;;;;;;5024915;28;20201;-82
2023/06/27 02:15:29;;;;;;;0.10;0.10;;;17.30;99.90;;;;;;5024935;28;20210;-82
2023/06/27 02:17:55;;;;;;;0.10;0.10;;;17.40;99.90;;;;;;5024956;28;20220;-81
2023/06/27 02:20:20;;;;;;;0.10;0.10;;;17.40;99.90;;;;;;5024690;28;20646;-81
2023/06/27 02:22:46;;;;;;;0.10;0.10;;;17.60;99.90;;;;;;5025832;28;20238;-82
2023/06/27 02:25:11;;;;;;;0.10;0.10;;;17.70;99.90;;;;;;5025006;28;20217;-82
2023/06/27 02:27:37;;;;;;;0.10;0.10;;;17.80;99.90;;;;;;5025405;28;20217;-82
2023/06/27 02:30:02;;;;;;;0.10;0.10;;;17.80;99.90;;;;;;5025688;28;20186;-81
2023/06/27 02:32:28;;;;;;;0.10;0.10;;;17.90;99.90;;;;;;5024133;28;20206;-82
2023/06/27 02:34:53;;;;;;;0.10;0.10;;;17.90;99.90;;;;;;5023456;28;20621;-82
2023/06/27 02:37:19;;;;;;;0.10;0.10;;;18.00;99.90;;;;;;5023044;28;20201;-82
2023/06/27 02:39:44;;;;;;;0.10;0.10;;;18.00;99.90;;;;;;5023055;28;20197;-82
2023/06/27 02:42:10;;;;;;;0.10;0.10;;;18.00;99.90;;;;;;5024598;28;20213;-82
2023/06/27 02:44:35;;;;;;;0.10;0.10;;;18.00;99.90;;;;;;5025810;28;20595;-82
2023/06/27 02:47:01;;;;;;;0.10;0.10;;;18.00;99.90;;;;;;5024328;28;20581;-82
2023/06/27 02:49:26;;;;;;;0.10;0.10;;;18.00;99.90;;;;;;5026624;28;20179;-82
2023/06/27 02:51:52;;;;;;;0.10;0.10;;;18.10;99.90;;;;;;5023446;28;20212;-82
2023/06/27 02:54:18;;;;;;;0.10;0.10;;;18.00;99.90;;;;;;5024228;28;20221;-82
2023/06/27 02:56:43;;;;;;;0.10;0.10;;;18.10;99.90;;;;;;5025299;28;20275;-82
2023/06/27 02:59:09;;;;;;;0.10;0.10;;;18.00;99.90;;;;;;5024334;28;20248;-81
2023/06/27 03:01:34;;;;;;;0.10;0.10;;;17.90;99.90;;;;;;5022872;28;20260;-81
2023/06/27 03:04:00;;;;;;;0.10;0.10;;;17.90;99.90;;;;;;5023826;28;20517;-82
2023/06/27 03:06:25;;;;;;;0.10;0.10;;;17.90;99.90;;;;;;5025238;28;20903;-82
2023/06/27 03:08:51;;;;;;;0.10;0.10;;;18.00;99.90;;;;;;5022411;28;20251;-82
2023/06/27 03:11:17;;;;;;;0.10;0.10;;;18.00;99.90;;;;;;5022176;28;20549;-82
2023/06/27 03:13:42;;;;;;;0.10;0.10;;;17.70;99.90;;;;;;5021551;28;20699;-82
2023/06/27 03:16:08;;;;;;;0.10;0.10;;;17.60;99.90;;;;;;5021953;28;20249;-82
2023/06/27 03:18:33;;;;;;;0.10;0.10;;;17.60;99.90;;;;;;5023083;28;20187;-82
2023/06/27 03:20:59;;;;;;;0.10;0.10;;;17.30;99.90;;;;;;5022943;28;20199;-81
2023/06/27 03:23:24;;;;;;;0.10;0.10;;;17.40;99.90;;;;;;5023241;28;20205;-82
2023/06/27 03:25:50;;;;;;;0.10;0.10;;;17.10;99.90;;;;;;5022426;28;20197;-82
2023/06/27 03:28:15;;;;;;;0.10;0.10;;;17.10;99.90;;;;;;5022866;28;20187;-82
2023/06/27 03:30:43;;;;;;;0.10;0.10;;;17.20;99.90;;;;;;5021732;28;20175;-82
2023/06/27 03:33:10;;;;;;;0.10;0.10;;;17.40;99.90;;;;;;5021387;28;20226;-82
2023/06/27 03:35:35;;;;;;;0.10;0.10;;;17.50;99.90;;;;;;5023127;28;20206;-82
2023/06/27 03:38:02;;;;;;;0.10;0.10;;;17.60;99.90;;;;;;5021211;28;20221;-82
2023/06/27 03:40:28;;;;;;;0.10;0.10;;;17.80;99.90;;;;;;5021886;28;20182;-82
2023/06/27 03:42:55;;;;;;;0.10;0.10;;;18.00;99.90;;;;;;5018914;28;20205;-81
2023/06/27 03:45:21;;;;;;;0.10;0.10;;;18.20;99.90;;;;;;5023133;28;20189;-82
2023/06/27 03:47:47;;;;;;;0.10;0.10;;;18.30;99.90;;;;;;5022315;28;20206;-82
2023/06/27 03:50:12;;;;;;;0.10;0.10;;;18.50;99.90;;;;;;5021493;28;20182;-82
2023/06/27 03:52:38;;;;;;;0.10;0.10;;;18.80;99.90;;;;;;5026470;28;20210;-80
2023/06/27 03:55:05;;;;;;;0.10;0.10;;;19.00;99.90;;;;;;5023169;28;20644;-80
2023/06/27 03:57:30;;;;;;;0.10;0.10;;;19.10;99.90;;;;;;5023010;28;20188;-81
2023/06/27 03:59:56;;;;;;;0.10;0.10;;;18.90;99.90;;;;;;5021804;28;20235;-81
2023/06/27 04:02:21;;;;;;;0.10;0.10;;;18.90;99.90;;;;;;5020209;28;20206;-81
2023/06/27 04:04:47;;;;;;;0.10;0.10;;;18.90;99.90;;;;;;5022593;28;20220;-81
2023/06/27 04:07:14;;;;;;;0.10;0.10;;;18.90;99.90;;;;;;5027012;28;20582;-80
2023/06/27 04:09:40;;;;;;;0.10;0.10;;;18.90;99.90;;;;;;5027343;28;20213;-80
2023/06/27 04:12:06;;;;;;;0.10;0.10;;;19.00;99.90;;;;;;5026805;28;20753;-80
2023/06/27 04:14:31;;;;;;;0.10;0.10;;;18.90;99.90;;;;;;5034424;28;20562;-81
2023/06/27 04:16:57;;;;;;;0.10;0.10;;;19.00;99.90;;;;;;5021114;28;20186;-81
2023/06/27 04:19:22;;;;;;;0.10;0.10;;;19.00;99.90;;;;;;5027004;28;20270;-81
2023/06/27 04:21:48;;;;;;;0.10;0.10;;;19.00;99.90;;;;;;5019684;28;20693;-81
2023/06/27 04:24:13;;;;;;;0.10;0.10;;;19.10;99.90;;;;;;5025229;28;20200;-81
2023/06/27 04:26:40;;;;;;;0.10;0.10;;;19.10;99.90;;;;;;5021578;28;20202;-80
2023/06/27 04:29:05;;;;;;;0.10;0.10;;;19.10;99.90;;;;;;5021232;28;20200;-84
2023/06/27 04:31:32;;;;;;;0.10;0.10;;;19.10;99.90;;;;;;5018449;28;21129;-84
2023/06/27 04:33:59;;;;;;;0.10;0.10;;;19.10;99.90;;;;;;5020204;28;20174;-84
2023/06/27 04:36:26;;;;;;;0.10;0.10;;;19.10;99.90;;;;;;5021321;28;20269;-85
2023/06/27 04:38:51;;;;;;;0.10;0.10;;;19.10;99.90;;;;;;5020364;28;20190;-84
2023/06/27 04:41:17;;;;;;;0.10;0.10;;;19.10;99.90;;;;;;5016585;28;20182;-85
2023/06/27 04:43:43;;;;;;;0.10;0.10;;;19.10;99.90;;;;;;5022825;28;20285;-85
2023/06/27 04:46:08;;;;;;;0.10;0.10;;;19.10;99.90;;;;;;5025059;28;20201;-85
2023/06/27 04:48:34;;;;;;;0.10;0.10;;;19.10;99.90;;;;;;5024808;28;20649;-84
2023/06/27 04:51:00;;;;;;;0.10;0.10;;;19.20;99.90;;;;;;5022500;28;20305;-84
2023/06/27 04:53:25;;;;;;;0.10;0.10;;;19.30;99.90;;;;;;5022746;28;20211;-84
2023/06/27 04:55:52;;;;;;;0.10;0.10;;;19.30;99.90;;;;;;5024062;28;20822;-85
2023/06/27 04:58:18;;;;;;;0.10;0.10;;;19.40;99.90;;;;;;5023234;28;20182;-84
2023/06/27 05:00:44;;;;;;;0.10;0.10;;;19.30;99.90;;;;;;5025717;28;20185;-84
2023/06/27 05:03:10;;;;;;;0.10;0.10;;;19.40;99.90;;;;;;5022972;28;20206;-83
2023/06/27 05:05:36;;;;;;;0.10;0.10;;;19.50;99.90;;;;;;5020791;28;20753;-83
2023/06/27 05:08:03;;;;;;;0.10;0.10;;;19.50;99.90;;;;;;5021804;28;20225;-82
2023/06/27 05:10:32;;;;;;;0.10;0.10;;;19.50;99.90;;;;;;5020596;28;20188;-84
2023/06/27 05:12:58;;;;;;;0.10;0.10;;;19.60;99.90;;;;;;5023438;28;20351;-83
2023/06/27 05:15:24;;;;;;;0.10;0.10;;;19.70;99.90;;;;;;5024571;28;20278;-83
2023/06/27 05:18:08;;;;;;;0.10;0.10;;;19.70;99.90;;;;;;5026243;28;20217;-83
2023/06/27 05:20:34;;;;;;;0.10;0.10;;;19.70;99.90;;;;;;5024093;28;20216;-83
2023/06/27 05:23:02;;;;;;;0.10;0.10;;;19.60;99.90;;;;;;5024638;28;20210;-83
2023/06/27 05:25:30;;;;;;;0.10;0.10;;;19.60;99.90;;;;;;5023515;28;20186;-83
2023/06/27 05:27:55;;;;;;;0.10;0.10;;;19.70;99.90;;;;;;5024560;28;20264;-83
2023/06/27 05:30:21;;;;;;;0.10;0.10;;;19.70;99.90;;;;;;5025486;28;20201;-83
2023/06/27 05:32:46;;;;;;;0.10;0.10;;;19.80;99.90;;;;;;5024261;28;20242;-83
2023/06/27 05:35:12;;;;;;;0.10;0.10;;;19.70;99.90;;;;;;5024972;28;20316;-83
2023/06/27 05:37:37;;;;;;;0.10;0.10;;;19.70;99.90;;;;;;5025473;28;20197;-83
2023/06/27 05:40:03;;;;;;;0.10;0.10;;;19.70;99.90;;;;;;5022982;28;20183;-83
2023/06/27 05:42:29;;;;;;;0.10;0.10;;;19.70;99.90;;;;;;5023677;28;20207;-83
2023/06/27 05:44:54;;;;;;;0.10;0.10;;;19.80;99.90;;;;;;5023287;28;20193;-83
2023/06/27 05:47:20;;;;;;;0.10;0.10;;;19.70;99.90;;;;;;5025609;28;20231;-83
2023/06/27 05:49:47;;;;;;;0.10;0.10;;;19.70;99.90;;;;;;5024604;28;20182;-83
2023/06/27 05:52:13;;;;;;;0.10;0.10;;;19.70;99.90;;;;;;5025249;28;20973;-83
2023/06/27 05:54:38;;;;;;;0.10;0.10;;;19.70;99.90;;;;;;5022830;28;20187;-83
2023/06/27 05:57:04;;;;;;;0.10;0.10;;;19.80;99.90;;;;;;5025550;28;20190;-83
2023/06/27 05:59:30;;;;;;;0.10;0.10;;;19.80;99.90;;;;;;5025977;28;20275;-83
2023/06/27 06:01:55;;;;;;;0.10;0.10;;;19.90;99.90;;;;;;5022425;28;20389;-83
2023/06/27 06:04:21;;;;;;;0.10;0.10;;;20.00;99.90;;;;;;5023761;28;20424;-83
2023/06/27 06:06:46;;;;;;;0.10;0.10;;;20.10;99.90;;;;;;5024161;28;20214;-83
2023/06/27 06:09:12;;;;;;;0.10;0.10;;;20.10;99.90;;;;;;5022473;28;20193;-83
2023/06/27 06:11:37;;;;;;;0.10;0.10;;;20.20;99.90;;;;;;5019690;28;21051;-84
2023/06/27 06:14:04;;;;;;;0.10;0.10;;;20.20;99.90;;;;;;5031317;28;20178;-83
2023/06/27 06:16:33;;;;;;;0.10;0.10;;;20.40;99.90;;;;;;5023384;28;20275;-82
2023/06/27 06:19:03;;;;;;;0.10;0.10;;;20.60;99.90;;;;;;5020899;28;20195;-83
2023/06/27 06:21:30;;;;;;;0.10;0.10;;;20.70;99.90;;;;;;5021779;28;20277;-83
2023/06/27 06:23:56;;;;;;;0.10;0.10;;;20.70;99.90;;;;;;5028247;28;20182;-83
2023/06/27 06:26:21;;;;;;;0.10;0.10;;;20.70;99.90;;;;;;5023103;28;20221;-83
2023/06/27 06:28:47;;;;;;;0.10;0.10;;;20.80;99.90;;;;;;5022222;28;20190;-83
2023/06/27 06:31:20;;;;;;;0.10;0.10;;;20.90;99.90;;;;;;5020026;28;20197;-83
2023/06/27 06:33:48;;;;;;;0.10;0.10;;;21.20;99.90;;;;;;5021269;28;20228;-83
2023/06/27 06:36:13;;;;;;;0.10;0.10;;;21.20;99.90;;;;;;5021446;28;20174;-83
2023/06/27 06:38:40;;;;;;;0.10;0.10;;;21.30;99.90;;;;;;5020544;28;20191;-83
2023/06/27 06:41:06;;;;;;;0.10;0.10;;;21.00;99.90;;;;;;5019665;28;20190;-83
2023/06/27 06:43:31;;;;;;;0.10;0.10;;;21.20;99.90;;;;;;5023260;28;20707;-83
2023/06/27 06:45:57;;;;;;;0.10;0.10;;;21.40;99.90;;;;;;5020731;28;20179;-83
2023/06/27 06:48:23;;;;;;;0.10;0.10;;;21.60;99.90;;;;;;5019301;28;20179;-83
2023/06/27 06:50:50;;;;;;;0.10;0.10;;;21.80;99.90;;;;;;5020988;28;20233;-83
2023/06/27 06:53:16;;;;;;;0.10;0.10;;;22.00;99.90;;;;;;5021535;28;20572;-83
2023/06/27 06:55:42;;;;;;;0.10;0.10;;;22.20;99.90;;;;;;5022135;28;20691;-83
2023/06/27 06:58:08;;;;;;;0.10;0.10;;;22.50;99.90;;;;;;5022511;28;20182;-83
2023/06/27 07:00:33;;;;;;;0.10;0.10;;;22.90;99.90;;;;;;5020638;28;20186;-83
2023/06/27 07:02:59;;;;;;;0.10;0.10;;;22.80;99.90;;;;;;5019401;28;20202;-83
2023/06/27 07:05:24;;;;;;;0.10;0.10;;;22.80;99.90;;;;;;5022466;28;20248;-84
2023/06/27 07:07:50;;;;;;;0.10;0.10;;;23.00;99.90;;;;;;5021191;28;20203;-83
2023/06/27 07:10:16;;;;;;;0.10;0.10;;;22.50;99.90;;;;;;5020107;28;20179;-82
2023/06/27 07:12:41;;;;;;;0.10;0.10;;;22.50;99.90;;;;;;5019286;28;20225;-82
2023/06/27 07:15:08;;;;;;;0.10;0.10;;;22.50;99.90;;;;;;5018963;28;21159;-83
2023/06/27 07:17:33;;;;;;;0.10;0.10;;;22.60;99.90;;;;;;5021277;28;20282;-84
2023/06/27 07:20:01;;;;;;;0.10;0.10;;;22.50;99.90;;;;;;5020707;28;20265;-84
2023/06/27 07:22:27;;;;;;;0.10;0.10;;;22.50;99.90;;;;;;5020901;28;20299;-83
2023/06/27 07:24:53;;;;;;;0.10;0.10;;;22.70;99.90;;;;;;5021161;28;20191;-84
2023/06/27 07:27:18;;;;;;;0.10;0.10;;;22.90;99.90;;;;;;5020517;28;20252;-83
2023/06/27 07:29:44;;;;;;;0.10;0.10;;;23.10;99.90;;;;;;5021246;28;20186;-83
2023/06/27 07:32:10;;;;;;;0.10;0.10;;;23.40;99.90;;;;;;5021185;28;20292;-84
2023/06/27 07:34:36;;;;;;;0.10;0.10;;;23.50;99.90;;;;;;5020589;28;20232;-84
2023/06/27 07:37:02;;;;;;;0.10;0.10;;;23.80;99.90;;;;;;5020167;28;20194;-83
2023/06/27 07:39:28;;;;;;;0.10;0.10;;;24.10;99.90;;;;;;5015171;28;20621;-84
2023/06/27 07:41:54;;;;;;;0.10;0.10;;;24.10;99.90;;;;;;5016132;28;20214;-83
2023/06/27 07:44:19;;;;;;;0.10;0.10;;;24.30;99.90;;;;;;5020594;28;20269;-80
2023/06/27 07:46:45;;;;;;;0.10;0.10;;;24.10;99.90;;;;;;5027040;28;20202;-81
2023/06/27 07:49:10;;;;;;;0.10;0.10;;;24.40;99.90;;;;;;5028218;28;20213;-81
2023/06/27 07:51:36;;;;;;;0.10;0.10;;;24.60;99.90;;;;;;5027332;28;20182;-81
2023/06/27 07:54:02;;;;;;;0.10;0.10;;;24.70;99.90;;;;;;5023359;28;20193;-81
2023/06/27 07:56:29;;;;;;;0.10;0.10;;;24.80;99.90;;;;;;5027467;28;20182;-80
2023/06/27 07:58:54;;;;;;;0.10;0.10;;;24.90;99.90;;;;;;5024982;28;20293;-79
2023/06/27 08:01:20;;;;;;;0.10;0.10;;;24.80;99.90;;;;;;5023094;28;20278;-80
2023/06/27 08:03:46;;;;;;;0.10;0.10;;;24.60;99.90;;;;;;5022719;28;20221;-81
2023/06/27 08:06:11;;;;;;;0.10;0.10;;;24.60;99.90;;;;;;5022587;28;20210;-81
2023/06/27 08:08:37;;;;;;;0.10;0.10;;;24.70;99.90;;;;;;5021941;28;20191;-81
2023/06/27 08:11:03;;;;;;;0.10;0.10;;;24.90;99.90;;;;;;5014803;28;20210;-83
2023/06/27 08:13:29;;;;;;;0.10;0.10;;;25.00;99.90;;;;;;5018692;28;20237;-80
2023/06/27 08:15:55;;;;;;;0.10;0.10;;;25.10;99.90;;;;;;5024045;28;20278;-80
2023/06/27 08:18:20;;;;;;;0.10;0.10;;;25.40;99.90;;;;;;5021424;28;20289;-81
2023/06/27 08:20:46;;;;;;;0.10;0.10;;;25.50;99.90;;;;;;5019714;28;20178;-80
2023/06/27 08:23:11;;;;;;;0.10;0.10;;;25.50;99.90;;;;;;5020906;28;20214;-81
2023/06/27 08:25:37;;;;;;;0.10;0.10;;;25.70;99.90;;;;;;5023519;28;20711;-81
2023/06/27 08:28:03;;;;;;;0.10;0.10;;;26.10;99.90;;;;;;5022325;28;20206;-81
2023/06/27 08:30:28;;;;;;;0.10;0.10;;;25.60;99.90;;;;;;5020733;28;20695;-80
2023/06/27 08:32:57;;;;;;;0.10;0.10;;;25.30;99.90;;;;;;5019047;28;21048;-82
2023/06/27 08:35:23;;;;;;;0.10;0.10;;;25.00;99.90;;;;;;5019405;28;20228;-80
2023/06/27 08:37:49;;;;;;;0.10;0.10;;;25.00;99.90;;;;;;5018001;28;20280;-81
2023/06/27 08:40:20;;;;;;;0.10;0.10;;;24.90;99.90;;;;;;5015366;28;20236;-82
2023/06/27 08:42:46;;;;;;;0.10;0.10;;;24.50;99.90;;;;;;5019126;28;20301;-84
2023/06/27 08:45:12;;;;;;;0.10;0.10;;;24.20;99.90;;;;;;5013035;28;20221;-81
2023/06/27 08:47:41;;;;;;;0.10;0.10;;;23.90;99.90;;;;;;5020367;28;20209;-81
2023/06/27 08:50:12;;;;;;;0.10;0.10;;;23.70;99.90;;;;;;5016482;28;20171;-80
2023/06/27 08:52:44;;;;;;;0.10;0.10;;;23.70;99.90;;;;;;5014781;28;20217;-81
2023/06/27 08:55:18;;;;;;;0.10;0.10;;;23.70;99.90;;;;;;5017855;28;20186;-81
2023/06/27 08:57:46;;;;;;;0.10;0.10;;;23.90;99.90;;;;;;5020156;28;20186;-81
2023/06/27 09:00:13;;;;;;;0.10;0.10;;;24.60;99.90;;;;;;5019401;28;20195;-81
2023/06/27 09:02:41;;;;;;;0.10;0.10;;;25.20;99.90;;;;;;5015246;28;20214;-81
2023/06/27 09:05:07;;;;;;;0.10;0.10;;;25.60;99.90;;;;;;5019573;28;20199;-81
2023/06/27 09:07:33;;;;;;;0.10;0.10;;;25.30;99.90;;;;;;5020593;28;20232;-81
2023/06/27 09:09:59;;;;;;;0.10;0.10;;;25.70;99.90;;;;;;5020709;28;20190;-80
2023/06/27 09:12:27;;;;;;;0.10;0.10;;;25.30;99.90;;;;;;5027630;28;20256;-80
2023/06/27 09:14:53;;;;;;;0.10;0.10;;;25.20;99.90;;;;;;5024550;28;20222;-81
2023/06/27 09:17:19;;;;;;;0.10;0.10;;;25.40;99.90;;;;;;5022095;28;20305;-81
2023/06/27 09:19:44;;;;;;;0.10;0.10;;;25.30;99.90;;;;;;5022278;28;20187;-81
2023/06/27 09:22:10;;;;;;;0.10;0.10;;;25.40;99.90;;;;;;5021042;28;20202;-81
2023/06/27 09:24:40;;;;;;;0.10;0.10;;;25.70;99.90;;;;;;5021590;28;20198;-81
2023/06/27 09:27:07;;;;;;;0.23;0.23;;;25.90;99.90;;;;;;5023234;28;20229;-80
2023/06/27 09:29:35;;;;;;;0.10;0.10;;;25.60;99.90;;;;;;5018491;28;20241;-81
2023/06/27 09:32:05;;;;;;;0.10;0.10;;;25.40;99.90;;;;;;5022600;28;20206;-81
2023/06/27 09:34:31;;;;;;;0.10;0.10;;;25.50;99.90;;;;;;5023741;28;20229;-81
2023/06/27 09:37:01;;;;;;;0.10;0.10;;;25.20;99.90;;;;;;5020290;28;20225;-81
2023/06/27 09:39:27;;;;;;;0.10;0.10;;;25.10;99.90;;;;;;5024295;28;20240;-81
2023/06/27 09:41:52;;;;;;;0.10;0.10;;;25.10;99.90;;;;;;5020657;28;20206;-82
2023/06/27 09:44:20;;;;;;;0.10;0.10;;;25.20;99.90;;;;;;5022922;28;20182;-80
2023/06/27 09:46:51;;;;;;;0.10;0.10;;;25.30;99.90;;;;;;5022089;28;20198;-81
2023/06/27 09:49:18;;;;;;;0.10;0.10;;;25.50;99.90;;;;;;5022660;28;20312;-80
2023/06/27 09:51:50;;;;;;;0.10;0.10;;;25.70;99.90;;;;;;5020895;28;20190;-81
2023/06/27 09:54:21;;;;;;;0.10;0.10;;;26.20;99.90;;;;;;5018588;28;20208;-81
2023/06/27 09:56:51;;;;;;;0.10;0.10;;;26.50;99.90;;;;;;5020406;28;20212;-81
2023/06/27 09:59:19;;;;;;;0.10;0.10;;;26.60;99.90;;;;;;5023684;28;20197;-81
2023/06/27 10:01:44;;;;;;;0.10;0.10;;;26.70;99.90;;;;;;5020731;28;20187;-81
2023/06/27 10:04:10;;;;;;;0.10;0.10;;;26.90;99.90;;;;;;5021841;28;20182;-81
2023/06/27 10:06:37;;;;;;;0.10;0.10;;;26.80;99.90;;;;;;5026995;28;20827;-81
2023/06/27 10:09:03;;;;;;;0.10;0.10;;;26.70;99.90;;;;;;5029255;28;21961;-80
2023/06/27 10:11:29;;;;;;;0.10;0.10;;;27.20;99.90;;;;;;5025817;28;20194;-81
2023/06/27 10:13:55;;;;;;;0.10;0.10;;;27.50;99.90;;;;;;5024233;28;21216;-81
2023/06/27 10:16:21;;;;;;;0.10;0.10;;;26.90;99.90;;;;;;5023201;28;20474;-80
2023/06/27 10:18:49;;;;;;;0.10;0.10;;;26.90;99.90;;;;;;5021410;28;20178;-80
2023/06/27 10:21:16;;;;;;;0.10;0.10;;;27.30;99.90;;;;;;5020032;28;20182;-81
2023/06/27 10:23:50;;;;;;;0.10;0.10;;;27.60;99.90;;;;;;5022400;28;20213;-81
2023/06/27 10:26:19;;;;;;;0.10;0.10;;;27.30;99.90;;;;;;5020480;28;20294;-81
2023/06/27 10:28:49;;;;;;;0.10;0.10;;;27.10;99.90;;;;;;5021875;28;20289;-80
2023/06/27 10:31:36;;;;;;;0.10;0.10;;;27.00;99.90;;;;;;5021528;28;20655;-81
2023/06/27 10:34:02;;;;;;;0.10;0.10;;;27.20;99.90;;;;;;5023044;28;20194;-81
2023/06/27 10:36:58;;;;;;;0.10;0.10;;;27.10;99.90;;;;;;5020183;28;20174;-81
2023/06/27 10:39:31;;;;;;;0.10;0.10;;;27.40;99.90;;;;;;5020909;28;20183;-82
2023/06/27 10:42:03;;;;;;;0.10;0.10;;;27.20;99.90;;;;;;5019759;28;20213;-81
2023/06/27 10:44:29;;;;;;;0.10;0.10;;;27.30;99.90;;;;;;5014443;28;20267;-81
2023/06/27 10:47:20;;;;;;;0.10;0.10;;;27.60;99.90;;;;;;5016874;28;20631;-81
2023/06/27 10:49:47;;;;;;;0.10;0.10;;;27.60;99.90;;;;;;5022525;28;20598;-80
2023/06/27 10:52:23;;;;;;;0.10;0.10;;;27.90;99.90;;;;;;5017674;28;20202;-82
2023/06/27 10:55:14;;;;;;;0.10;0.10;;;28.00;99.90;;;;;;5025223;28;20188;-81
2023/06/27 10:57:44;;;;;;;0.10;0.10;;;28.00;99.90;;;;;;5030543;28;20183;-81
2023/06/27 11:00:15;;;;;;;0.10;0.10;;;27.90;99.90;;;;;;5025078;28;20185;-81
2023/06/27 11:02:44;;;;;;;0.10;0.10;;;27.90;99.90;;;;;;5026695;28;20520;-81
2023/06/27 11:05:16;;;;;;;0.10;0.10;;;28.00;99.90;;;;;;5023562;28;20280;-81
2023/06/27 11:07:52;;;;;;;0.10;0.10;;;27.70;99.90;;;;;;5023886;28;20202;-81
2023/06/27 11:10:31;;;;;;;0.10;0.10;;;27.50;99.90;;;;;;5022225;28;20178;-81
2023/06/27 11:13:21;;;;;;;0.10;0.10;;;27.40;99.90;;;;;;5022446;28;20317;-81
2023/06/27 11:15:48;;;;;;;0.10;0.10;;;27.00;99.90;;;;;;5024533;28;20166;-81
2023/06/27 11:18:18;;;;;;;0.10;0.10;;;27.10;99.90;;;;;;5021921;28;20539;-82
2023/06/27 11:20:45;;;;;;;0.10;0.10;;;27.30;99.90;;;;;;5017378;28;20186;-81
2023/06/27 11:23:17;;;;;;;0.10;0.10;;;27.30;99.90;;;;;;5020746;28;20198;-81
2023/06/27 11:25:45;;;;;;;0.10;0.10;;;27.20;99.90;;;;;;5020056;28;20198;-82
2023/06/27 11:28:12;;;;;;;0.10;0.10;;;27.20;99.90;;;;;;5021727;28;20341;-81
2023/06/27 11:30:38;;;;;;;0.10;0.10;;;27.30;99.90;;;;;;5019530;28;20179;-81
2023/06/27 11:33:04;;;;;;;0.10;0.10;;;27.50;99.90;;;;;;5019902;28;20202;-81
2023/06/27 11:35:34;;;;;;;0.10;0.10;;;27.40;99.90;;;;;;5020113;28;21173;-81
2023/06/27 11:38:00;;;;;;;0.10;0.10;;;27.50;99.90;;;;;;5024197;28;20190;-81
2023/06/27 11:40:26;;;;;;;0.10;0.10;;;27.20;99.90;;;;;;5024083;28;20273;-81
2023/06/27 11:43:00;;;;;;;0.10;0.10;;;27.20;99.90;;;;;;5024125;28;20206;-81
2023/06/27 11:45:26;;;;;;;0.10;0.10;;;27.10;99.90;;;;;;5023020;28;20648;-81
2023/06/27 11:47:53;;;;;;;0.10;0.10;;;27.20;99.90;;;;;;5022260;28;20205;-81
2023/06/27 11:50:19;;;;;;;0.10;0.10;;;27.20;99.90;;;;;;5021918;28;20174;-81
2023/06/27 11:52:47;;;;;;;0.10;0.10;;;26.90;99.90;;;;;;5019642;28;20297;-81
2023/06/27 11:55:13;;;;;;;0.10;0.10;;;27.10;99.90;;;;;;5022951;28;20186;-81
2023/06/27 11:57:51;;;;;;;0.10;0.10;;;27.40;99.90;;;;;;5022736;28;20197;-81
2023/06/27 12:00:18;;;;;;;0.10;0.10;;;27.30;99.90;;;;;;5024818;28;20251;-81
2023/06/27 12:03:06;;;;;;;0.10;0.10;;;27.00;99.90;;;;;;5021661;28;20233;-81
2023/06/27 12:05:32;;;;;;;0.10;0.10;;;27.10;99.90;;;;;;5024389;28;20285;-80
2023/06/27 12:08:06;;;;;;;0.10;0.10;;;27.10;99.90;;;;;;5026469;28;20239;-80
2023/06/27 12:10:56;;;;;;;0.10;0.10;;;27.00;99.90;;;;;;5024729;28;20313;-81
2023/06/27 12:13:33;;;;;;;0.10;0.10;;;27.40;99.90;;;;;;5023757;28;20198;-81
2023/06/27 12:15:58;;;;;;;0.10;0.10;;;27.70;99.90;;;;;;5026882;28;20229;-81
2023/06/27 12:18:27;;;;;;;0.10;0.10;;;27.70;99.90;;;;;;5022014;28;20260;-81
2023/06/27 12:20:54;;;;;;;0.10;0.10;;;27.30;99.90;;;;;;5021864;28;20703;-81
2023/06/27 12:23:20;;;;;;;0.10;0.10;;;27.00;99.90;;;;;;5025763;28;20195;-81
2023/06/27 12:25:46;;;;;;;0.10;0.10;;;27.00;99.90;;;;;;5022028;28;20289;-81
2023/06/27 12:28:12;;;;;;;0.10;0.10;;;27.30;99.90;;;;;;5022706;28;20209;-81
2023/06/27 12:30:38;;;;;;;0.10;0.10;;;27.20;99.90;;;;;;5021016;28;20179;-81
2023/06/27 12:33:06;;;;;;;0.10;0.10;;;27.20;99.90;;;;;;5021149;28;20206;-80
2023/06/27 12:35:32;;;;;;;0.10;0.10;;;26.70;99.90;;;;;;5029662;28;20701;-81
2023/06/27 12:37:57;;;;;;;0.10;0.10;;;26.60;99.90;;;;;;5021091;28;20267;-81
2023/06/27 12:40:24;;;;;;;0.10;0.10;;;26.60;99.90;;;;;;5023250;28;20268;-82
2023/06/27 12:42:51;;;;;;;0.10;0.10;;;26.70;99.90;;;;;;5022044;28;20300;-81
2023/06/27 12:45:17;;;;;;;0.10;0.10;;;26.70;99.90;;;;;;5022305;28;20182;-81
2023/06/27 12:47:43;;;;;;;0.10;0.10;;;26.70;99.90;;;;;;5019693;28;20977;-81
2023/06/27 12:50:17;;;;;;;0.10;0.10;;;26.60;99.90;;;;;;5019992;28;20198;-81